createdAt,value
2022-07-28T00:01:37.992Z,19.46
2022-07-28T00:04:26.070Z,19.45
2022-07-28T00:07:06.953Z,19.41
2022-07-28T00:10:00.703Z,19.45
2022-07-28T00:12:43.146Z,19.38
2022-07-28T00:15:31.064Z,19.27
2022-07-28T00:18:11.964Z,19.18
2022-07-28T00:21:01.645Z,19.12
2022-07-28T00:23:41.975Z,19.10
2022-07-28T00:26:30.122Z,18.92
2022-07-28T00:29:12.723Z,18.91
2022-07-28T00:32:04.587Z,18.97
2022-07-28T00:34:46.359Z,19.00
2022-07-28T00:37:34.132Z,19.07
2022-07-28T00:40:16.981Z,19.06
2022-07-28T00:43:04.125Z,19.09
2022-07-28T00:45:44.969Z,19.14
2022-07-28T00:48:33.143Z,19.15
2022-07-28T00:51:18.804Z,19.17
2022-07-28T00:54:06.259Z,19.18
2022-07-28T00:56:49.096Z,19.15
2022-07-28T00:59:44.943Z,19.14
2022-07-28T01:02:33.444Z,19.12
2022-07-28T01:05:15.988Z,19.10
2022-07-28T01:08:13.033Z,19.36
2022-07-28T01:11:06.119Z,19.20
2022-07-28T01:14:32.021Z,19.16
2022-07-28T01:17:31.188Z,19.22
2022-07-28T01:20:30.472Z,19.18
2022-07-28T01:23:34.452Z,19.08
2022-07-28T01:27:03.387Z,19.12
2022-07-28T01:30:08.239Z,19.09
2022-07-28T01:33:08.420Z,19.03
2022-07-28T01:35:58.148Z,19.12
2022-07-28T01:38:46.747Z,19.13
2022-07-28T01:41:36.698Z,19.09
2022-07-28T01:44:29.382Z,19.03
2022-07-28T01:47:13.236Z,19.05
2022-07-28T01:50:05.722Z,19.09
2022-07-28T01:52:54.081Z,19.04
2022-07-28T01:55:43.007Z,19.07
2022-07-28T01:58:34.113Z,19.04
2022-07-28T02:01:20.856Z,19.05
2022-07-28T02:04:13.474Z,19.02
2022-07-28T02:06:56.766Z,19.15
2022-07-28T02:09:47.296Z,19.00
2022-07-28T02:12:29.156Z,19.02
2022-07-28T02:15:19.546Z,19.02
2022-07-28T02:18:03.402Z,19.01
2022-07-28T02:20:51.151Z,18.96
2022-07-28T02:23:34.025Z,18.94
2022-07-28T02:26:23.262Z,18.92
2022-07-28T02:29:07.408Z,18.87
2022-07-28T02:31:59.241Z,18.86
2022-07-28T02:34:45.663Z,18.93
2022-07-28T02:37:36.131Z,18.92
2022-07-28T02:40:21.042Z,18.84
2022-07-28T02:43:13.138Z,18.78
2022-07-28T02:45:58.130Z,18.72
2022-07-28T02:48:49.891Z,18.77
2022-07-28T02:51:35.067Z,18.67
2022-07-28T02:54:28.763Z,18.60
2022-07-28T02:57:12.039Z,18.59
2022-07-28T03:00:01.969Z,18.58
2022-07-28T03:02:44.427Z,18.55
2022-07-28T03:05:36.236Z,18.50
2022-07-28T03:08:18.176Z,18.49
2022-07-28T03:11:16.612Z,18.47
2022-07-28T03:13:57.636Z,18.46
2022-07-28T03:16:46.215Z,18.42
2022-07-28T03:19:27.081Z,18.47
2022-07-28T03:22:15.315Z,18.43
2022-07-28T03:25:00.091Z,18.41
2022-07-28T03:27:52.259Z,18.45
2022-07-28T03:30:41.493Z,18.50
2022-07-28T03:33:30.354Z,18.53
2022-07-28T03:36:19.388Z,18.57
2022-07-28T03:39:12.140Z,18.52
2022-07-28T03:41:54.820Z,18.60
2022-07-28T03:44:44.345Z,18.57
2022-07-28T03:47:31.712Z,18.52
2022-07-28T03:50:20.429Z,18.52
2022-07-28T03:53:02.852Z,18.49
2022-07-28T03:55:53.722Z,18.45
2022-07-28T04:01:42.254Z,18.39
2022-07-28T04:04:31.829Z,18.43
2022-07-28T04:07:14.577Z,18.42
2022-07-28T04:10:01.490Z,18.57
2022-07-28T04:12:58.232Z,18.58
2022-07-28T04:15:45.468Z,18.44
2022-07-28T04:18:26.697Z,18.51
2022-07-28T04:21:14.595Z,18.42
2022-07-28T04:23:59.810Z,18.44
2022-07-28T04:26:48.084Z,18.40
2022-07-28T04:29:29.255Z,18.51
2022-07-28T04:32:16.128Z,18.45
2022-07-28T04:34:57.214Z,18.48
2022-07-28T04:37:47.257Z,18.50
2022-07-28T04:40:28.685Z,18.41
2022-07-28T04:43:17.180Z,18.54
2022-07-28T04:45:58.269Z,18.41
2022-07-28T04:48:46.233Z,18.39
2022-07-28T04:51:27.289Z,18.23
2022-07-28T04:54:16.814Z,18.18
2022-07-28T04:56:58.212Z,18.17
2022-07-28T04:59:56.762Z,18.33
2022-07-28T05:02:44.695Z,18.24
2022-07-28T05:05:25.594Z,18.18
2022-07-28T05:08:13.252Z,18.28
2022-07-28T05:10:54.867Z,18.25
2022-07-28T05:13:44.311Z,18.44
2022-07-28T05:16:26.168Z,18.33
2022-07-28T05:19:13.242Z,18.51
2022-07-28T05:21:54.914Z,18.50
2022-07-28T05:24:44.637Z,18.29
2022-07-28T05:27:25.173Z,18.51
2022-07-28T05:30:13.281Z,18.37
2022-07-28T05:32:56.176Z,18.28
2022-07-28T05:35:45.272Z,18.37
2022-07-28T05:38:28.120Z,18.36
2022-07-28T05:41:16.274Z,18.38
2022-07-28T05:43:57.520Z,18.71
2022-07-28T05:46:48.333Z,18.70
2022-07-28T05:49:30.226Z,18.75
2022-07-28T05:52:18.236Z,18.75
2022-07-28T05:54:59.175Z,18.90
2022-07-28T05:57:55.164Z,18.94
2022-07-28T06:00:50.212Z,19.09
2022-07-28T06:03:42.288Z,19.16
2022-07-28T06:06:24.682Z,19.23
2022-07-28T06:09:14.055Z,19.42
2022-07-28T06:11:57.138Z,19.57
2022-07-28T06:14:45.282Z,19.51
2022-07-28T06:17:26.178Z,19.53
2022-07-28T06:20:16.979Z,19.60
2022-07-28T06:23:00.182Z,19.72
2022-07-28T06:25:50.299Z,19.88
2022-07-28T06:28:31.549Z,20.08
2022-07-28T06:31:20.169Z,20.18
2022-07-28T06:34:01.169Z,20.41
2022-07-28T06:36:50.548Z,20.54
2022-07-28T06:39:34.913Z,20.63
2022-07-28T06:42:26.704Z,20.64
2022-07-28T06:45:07.162Z,20.71
2022-07-28T06:47:56.317Z,20.71
2022-07-28T06:50:39.482Z,20.77
2022-07-28T06:53:34.049Z,20.86
2022-07-28T06:56:15.875Z,20.85
2022-07-28T06:59:10.183Z,20.87
2022-07-28T07:01:57.176Z,20.90
2022-07-28T07:04:39.038Z,20.89
2022-07-28T07:07:30.187Z,21.01
2022-07-28T07:10:12.398Z,21.09
2022-07-28T07:13:00.721Z,21.34
2022-07-28T07:15:42.119Z,21.51
2022-07-28T07:18:31.210Z,21.99
2022-07-28T07:21:14.314Z,22.55
2022-07-28T07:24:02.177Z,22.68
2022-07-28T07:26:44.707Z,22.73
2022-07-28T07:29:32.205Z,22.75
2022-07-28T07:32:14.333Z,22.79
2022-07-28T07:35:02.218Z,22.78
2022-07-28T07:37:43.767Z,22.75
2022-07-28T07:40:44.966Z,22.87
2022-07-28T07:43:35.013Z,22.97
2022-07-28T07:46:15.737Z,22.90
2022-07-28T07:49:05.164Z,22.80
2022-07-28T07:51:46.847Z,22.82
2022-07-28T07:54:34.856Z,22.97
2022-07-28T07:57:16.745Z,23.18
2022-07-28T08:00:03.873Z,23.46
2022-07-28T08:02:48.767Z,23.98
2022-07-28T08:05:36.444Z,24.72
2022-07-28T08:08:20.020Z,25.42
2022-07-28T08:11:08.368Z,25.85
2022-07-28T08:13:49.710Z,26.24
2022-07-28T08:16:40.960Z,26.57
2022-07-28T08:19:21.858Z,26.81
2022-07-28T08:22:08.869Z,27.57
2022-07-28T08:24:49.733Z,28.15
2022-07-28T08:27:40.103Z,28.66
2022-07-28T08:30:30.294Z,29.44
2022-07-28T08:33:22.971Z,30.60
2022-07-28T08:36:04.895Z,31.27
2022-07-28T08:39:00.706Z,31.70
2022-07-28T08:41:49.262Z,31.57
2022-07-28T08:44:36.402Z,31.98
2022-07-28T08:47:23.561Z,32.13
2022-07-28T08:50:05.880Z,32.15
2022-07-28T08:52:56.749Z,32.77
2022-07-28T08:55:42.910Z,32.96
2022-07-28T08:58:31.292Z,33.00
2022-07-28T09:01:13.943Z,32.72
2022-07-28T09:04:06.088Z,32.31
2022-07-28T09:06:48.281Z,31.78
2022-07-28T09:09:35.791Z,31.91
2022-07-28T09:12:17.060Z,32.28
2022-07-28T09:15:04.919Z,31.84
2022-07-28T09:17:49.181Z,32.05
2022-07-28T09:20:38.770Z,32.17
2022-07-28T09:23:42.158Z,32.06
2022-07-28T09:26:29.786Z,32.50
2022-07-28T09:29:11.461Z,32.77
2022-07-28T09:35:02.899Z,33.11
2022-07-28T09:37:53.546Z,33.46
2022-07-28T09:40:44.546Z,33.22
2022-07-28T09:43:38.041Z,33.63
2022-07-28T09:46:33.022Z,34.09
2022-07-28T09:49:15.620Z,34.55
2022-07-28T09:52:10.334Z,35.03
2022-07-28T09:55:13.790Z,35.16
2022-07-28T09:58:01.910Z,35.28
2022-07-28T10:00:45.520Z,35.47
2022-07-28T10:03:34.392Z,35.35
2022-07-28T10:06:23.923Z,34.85
2022-07-28T10:09:14.491Z,34.39
2022-07-28T10:11:55.816Z,33.88
2022-07-28T10:14:46.482Z,33.27
2022-07-28T10:17:40.817Z,32.17
2022-07-28T10:20:30.027Z,31.53
2022-07-28T10:23:13.910Z,30.74
2022-07-28T10:26:13.052Z,30.34
2022-07-28T10:28:59.265Z,30.20
2022-07-28T10:31:57.508Z,30.05
2022-07-28T10:34:46.201Z,29.88
2022-07-28T10:37:35.079Z,29.71
2022-07-28T10:40:25.189Z,29.71
2022-07-28T10:43:06.920Z,30.12
2022-07-28T10:46:06.130Z,30.87
2022-07-28T10:48:51.143Z,31.61
2022-07-28T10:51:59.797Z,31.89
2022-07-28T10:55:21.944Z,31.08
2022-07-28T10:58:28.360Z,30.76
2022-07-28T11:01:17.134Z,30.37
2022-07-28T11:04:48.070Z,30.16
2022-07-28T11:07:29.134Z,30.65
2022-07-28T11:10:23.814Z,31.19
2022-07-28T11:13:05.964Z,31.50
2022-07-28T11:16:05.209Z,31.49
2022-07-28T11:19:36.919Z,31.27
2022-07-28T11:22:24.297Z,30.88
2022-07-28T11:25:20.978Z,30.91
2022-07-28T11:28:12.758Z,30.46
2022-07-28T11:30:55.274Z,30.38
2022-07-28T11:34:04.982Z,30.44
2022-07-28T11:37:15.156Z,30.53
2022-07-28T11:40:46.256Z,29.82
2022-07-28T11:43:37.765Z,29.52
2022-07-28T11:46:21.887Z,29.51
2022-07-28T11:49:30.073Z,29.97
2022-07-28T11:52:22.625Z,30.33
2022-07-28T11:55:12.938Z,30.51
2022-07-28T11:57:55.015Z,30.33
2022-07-28T12:00:42.419Z,29.79
2022-07-28T12:03:54.015Z,29.55
2022-07-28T12:06:49.542Z,29.68
2022-07-28T12:09:42.453Z,29.88
2022-07-28T12:12:31.604Z,30.30
2022-07-28T12:15:13.976Z,30.75
2022-07-28T12:18:03.029Z,30.45
2022-07-28T12:20:52.240Z,30.35
2022-07-28T12:23:45.465Z,29.79
2022-07-28T12:26:49.208Z,29.55
2022-07-28T12:29:37.995Z,29.87
2022-07-28T12:32:20.886Z,30.29
2022-07-28T12:35:10.169Z,30.75
2022-07-28T12:37:55.259Z,30.86
2022-07-28T12:40:46.465Z,30.35
2022-07-28T12:43:28.888Z,30.42
2022-07-28T12:46:17.094Z,30.37
2022-07-28T12:48:59.247Z,30.29
2022-07-28T12:51:49.005Z,30.12
2022-07-28T12:54:53.721Z,30.13
2022-07-28T12:57:52.927Z,30.27
2022-07-28T13:00:41.993Z,30.20
2022-07-28T13:03:37.705Z,30.22
2022-07-28T13:06:20.690Z,30.38
2022-07-28T13:09:15.118Z,30.40
2022-07-28T13:11:55.991Z,30.33
2022-07-28T13:14:52.367Z,30.03
2022-07-28T13:17:40.916Z,29.50
2022-07-28T13:20:28.720Z,29.43
2022-07-28T13:23:12.903Z,29.41
2022-07-28T13:26:02.050Z,29.18
2022-07-28T13:28:42.915Z,29.02
2022-07-28T13:31:32.417Z,29.27
2022-07-28T13:34:16.295Z,29.65
2022-07-28T13:37:05.029Z,30.08
2022-07-28T13:39:59.192Z,30.37
2022-07-28T13:42:52.783Z,30.68
2022-07-28T13:45:34.390Z,30.97
2022-07-28T13:48:24.087Z,31.14
2022-07-28T13:51:07.717Z,31.26
2022-07-28T13:53:56.585Z,31.13
2022-07-28T13:56:44.947Z,31.28
2022-07-28T13:59:35.486Z,31.31
2022-07-28T14:02:18.945Z,31.11
2022-07-28T14:05:13.020Z,30.81
2022-07-28T14:07:55.525Z,30.68
2022-07-28T14:10:56.335Z,30.58
2022-07-28T14:13:38.225Z,30.56
2022-07-28T14:16:32.244Z,30.39
2022-07-28T14:19:13.318Z,30.02
2022-07-28T14:22:13.154Z,29.98
2022-07-28T14:24:57.995Z,30.18
2022-07-28T14:27:45.882Z,30.32
2022-07-28T14:30:28.353Z,30.45
2022-07-28T14:33:16.076Z,30.52
2022-07-28T14:35:56.947Z,30.40
2022-07-28T14:38:53.708Z,30.18
2022-07-28T14:41:40.970Z,30.00
2022-07-28T14:44:24.249Z,30.04
2022-07-28T14:47:18.172Z,30.03
2022-07-28T14:50:00.271Z,29.61
2022-07-28T14:52:49.100Z,29.44
2022-07-28T14:55:30.536Z,29.54
2022-07-28T14:58:19.585Z,29.35
2022-07-28T15:01:01.372Z,29.07
2022-07-28T15:03:47.952Z,28.93
2022-07-28T15:06:29.113Z,28.86
2022-07-28T15:09:18.087Z,28.87
2022-07-28T15:11:59.351Z,29.05
2022-07-28T15:14:46.005Z,29.12
2022-07-28T15:17:27.157Z,28.68
2022-07-28T15:20:17.399Z,28.61
2022-07-28T15:22:58.869Z,28.64
2022-07-28T15:25:49.418Z,28.56
2022-07-28T15:28:30.171Z,28.43
2022-07-28T15:31:20.758Z,28.12
2022-07-28T15:34:02.503Z,28.11
2022-07-28T15:36:50.353Z,28.08
2022-07-28T15:39:45.382Z,27.98
2022-07-28T15:42:34.378Z,27.94
2022-07-28T15:45:15.143Z,27.96
2022-07-28T15:48:03.120Z,28.09
2022-07-28T15:50:45.590Z,27.94
2022-07-28T15:53:35.091Z,27.69
2022-07-28T15:56:17.620Z,27.60
2022-07-28T15:59:06.123Z,27.44
2022-07-28T16:01:47.211Z,27.43
2022-07-28T16:04:48.436Z,27.42
2022-07-28T16:07:39.533Z,27.48
2022-07-28T16:10:33.011Z,27.55
2022-07-28T16:13:14.944Z,27.55
2022-07-28T16:16:04.442Z,27.53
2022-07-28T16:18:48.288Z,27.46
2022-07-28T16:21:36.022Z,27.55
2022-07-28T16:24:17.638Z,27.39
2022-07-28T16:27:05.093Z,27.40
2022-07-28T16:29:46.216Z,27.38
2022-07-28T16:32:34.782Z,27.52
2022-07-28T16:35:16.173Z,27.63
2022-07-28T16:38:04.398Z,27.58
2022-07-28T16:40:58.028Z,27.56
2022-07-28T16:43:46.135Z,27.42
2022-07-28T16:46:27.187Z,27.37
2022-07-28T16:49:15.101Z,27.36
2022-07-28T16:51:56.300Z,27.37
2022-07-28T16:54:44.048Z,27.37
2022-07-28T16:57:26.170Z,27.26
2022-07-28T17:00:17.049Z,27.23
2022-07-28T17:02:58.608Z,26.92
2022-07-28T17:05:45.041Z,26.75
2022-07-28T17:08:27.141Z,26.76
2022-07-28T17:11:15.045Z,26.60
2022-07-28T17:13:56.218Z,26.48
2022-07-28T17:16:44.070Z,26.35
2022-07-28T17:19:25.133Z,26.24
2022-07-28T17:22:14.057Z,26.23
2022-07-28T17:24:56.643Z,26.15
2022-07-28T17:27:47.869Z,25.97
2022-07-28T17:30:30.467Z,25.84
2022-07-28T17:33:19.074Z,25.72
2022-07-28T17:36:01.438Z,25.60
2022-07-28T17:38:49.078Z,25.51
2022-07-28T17:41:37.216Z,25.26
2022-07-28T17:44:18.457Z,25.10
2022-07-28T17:47:09.298Z,25.17
2022-07-28T17:49:51.592Z,25.17
2022-07-28T17:52:41.255Z,25.13
2022-07-28T17:56:00.373Z,25.11
2022-07-28T17:58:49.983Z,25.04
2022-07-28T18:01:31.474Z,24.98
2022-07-28T18:04:21.187Z,25.04
2022-07-28T18:07:02.835Z,24.89
2022-07-28T18:09:50.235Z,24.78
2022-07-28T18:12:31.089Z,24.72
2022-07-28T18:15:18.794Z,24.59
2022-07-28T18:18:01.851Z,24.50
2022-07-28T18:20:50.456Z,24.56
2022-07-28T18:23:34.000Z,24.46
2022-07-28T18:26:21.287Z,24.46
2022-07-28T18:29:02.858Z,24.40
2022-07-28T18:31:53.349Z,24.37
2022-07-28T18:34:35.111Z,24.46
2022-07-28T18:37:22.342Z,24.44
2022-07-28T18:40:18.129Z,24.36
2022-07-28T18:43:12.849Z,24.28
2022-07-28T18:45:54.605Z,24.21
2022-07-28T18:48:43.286Z,24.13
2022-07-28T18:51:25.666Z,23.99
2022-07-28T18:54:23.233Z,24.13
2022-07-28T18:57:08.437Z,24.13
2022-07-28T18:59:55.231Z,24.12
2022-07-28T19:02:37.174Z,24.11
2022-07-28T19:05:37.022Z,24.14
2022-07-28T19:08:18.497Z,24.00
2022-07-28T19:11:06.225Z,23.91
2022-07-28T19:13:47.515Z,23.94
2022-07-28T19:16:36.120Z,23.90
2022-07-28T19:19:17.887Z,23.92
2022-07-28T19:22:06.517Z,23.85
2022-07-28T19:24:47.113Z,23.71
2022-07-28T19:27:36.376Z,23.68
2022-07-28T19:30:17.234Z,23.57
2022-07-28T19:33:04.334Z,23.47
2022-07-28T19:35:47.413Z,23.36
2022-07-28T19:38:38.217Z,23.43
2022-07-28T19:41:26.549Z,23.37
2022-07-28T19:44:08.283Z,23.25
2022-07-28T19:46:56.162Z,23.35
2022-07-28T19:49:41.882Z,23.23
2022-07-28T19:52:31.577Z,23.22
2022-07-28T19:55:17.594Z,23.25
2022-07-28T19:58:08.535Z,23.11
2022-07-28T20:00:50.310Z,23.07
2022-07-28T20:04:01.334Z,22.95
2022-07-28T20:06:43.258Z,23.00
2022-07-28T20:09:30.893Z,22.98
2022-07-28T20:12:12.729Z,22.75
2022-07-28T20:15:00.528Z,22.69
2022-07-28T20:17:42.348Z,22.62
2022-07-28T20:20:30.576Z,22.51
2022-07-28T20:23:12.821Z,22.53
2022-07-28T20:26:00.306Z,22.65
2022-07-28T20:28:45.354Z,22.71
2022-07-28T20:31:32.974Z,22.57
2022-07-28T20:34:15.430Z,22.64
2022-07-28T20:37:04.479Z,22.50
2022-07-28T20:39:47.456Z,22.51
2022-07-28T20:42:41.975Z,22.37
2022-07-28T20:45:31.778Z,22.46
2022-07-28T20:48:14.566Z,22.52
2022-07-28T20:51:02.322Z,22.28
2022-07-28T20:53:44.772Z,22.29
2022-07-28T20:56:33.355Z,22.20
2022-07-28T20:59:15.028Z,22.38
2022-07-28T21:02:05.514Z,22.35
2022-07-28T21:04:46.230Z,22.39
2022-07-28T21:08:05.379Z,22.23
2022-07-28T21:10:43.420Z,22.31
2022-07-28T21:13:30.311Z,22.30
2022-07-28T21:16:11.699Z,22.26
2022-07-28T21:19:02.181Z,22.14
2022-07-28T21:21:43.178Z,22.08
2022-07-28T21:24:31.292Z,22.12
2022-07-28T21:27:13.089Z,22.17
2022-07-28T21:30:03.563Z,22.17
2022-07-28T21:32:44.595Z,22.01
2022-07-28T21:35:32.293Z,21.89
2022-07-28T21:38:13.214Z,21.77
2022-07-28T21:41:08.201Z,22.08
2022-07-28T21:44:04.083Z,22.00
2022-07-28T21:46:45.860Z,21.88
2022-07-28T21:49:37.591Z,21.95
2022-07-28T21:52:18.743Z,21.94
2022-07-28T21:55:07.216Z,21.87
2022-07-28T21:57:49.558Z,21.78
2022-07-28T22:00:42.258Z,21.79
2022-07-28T22:03:24.652Z,21.79
2022-07-28T22:06:11.226Z,21.79
2022-07-28T22:08:56.489Z,21.75
2022-07-28T22:11:45.311Z,21.68
2022-07-28T22:14:32.289Z,21.73
2022-07-28T22:17:21.031Z,21.62
2022-07-28T22:20:02.319Z,21.49
2022-07-28T22:22:49.622Z,21.54
2022-07-28T22:25:32.129Z,21.73
2022-07-28T22:28:19.247Z,21.56
2022-07-28T22:31:13.501Z,21.34
2022-07-28T22:34:01.205Z,21.34
2022-07-28T22:36:42.869Z,21.42
2022-07-28T22:39:31.814Z,21.35
2022-07-28T22:42:18.522Z,21.46
2022-07-28T22:48:10.887Z,21.26
2022-07-28T22:50:53.250Z,21.22
2022-07-28T22:53:40.358Z,21.26
2022-07-28T22:56:22.277Z,21.33
2022-07-28T22:59:10.140Z,21.36
2022-07-28T23:01:53.315Z,21.33
2022-07-28T23:04:40.414Z,21.25
2022-07-28T23:07:50.626Z,21.28
2022-07-28T23:10:31.148Z,21.30
2022-07-28T23:13:12.619Z,21.22
2022-07-28T23:16:01.375Z,21.04
2022-07-28T23:18:47.391Z,20.99
2022-07-28T23:21:36.717Z,20.89
2022-07-28T23:24:19.163Z,20.89
2022-07-28T23:27:09.088Z,20.72
2022-07-28T23:29:52.467Z,20.65
2022-07-28T23:32:39.965Z,20.48
2022-07-28T23:35:22.593Z,20.51
2022-07-28T23:38:10.383Z,20.45
2022-07-28T23:41:04.318Z,20.46
2022-07-28T23:43:53.555Z,20.43
2022-07-28T23:46:35.112Z,20.41
2022-07-28T23:49:22.600Z,20.46
2022-07-28T23:52:03.256Z,20.32
2022-07-28T23:54:52.910Z,20.38
2022-07-28T23:57:33.291Z,20.51
